Terminal Aerodrome Forecast
Issued by NWS Jacksonville, FL

Home | Current Version | Previous Version | Text Only | Print | Product List | Glossary On
Versions: 1 2 3 4 5 6 7 8 9 10 11 12 13 14 15 16 17 18 19 20
943
FTUS42 KJAX 122323
TAFSSI
TAF
KSSI 122323Z 1300/1324 28008KT P6SM BKN070
     FM130800 33010KT P6SM SKC
     FM131500 35012G20KT P6SM SKC
     FM132300 01011KT P6SM SKC=

USA.gov is the U.S. government's official web portal to all federal, state and local government web resources and services.